San Francisco International Airport
KSFO : rendu visible

Aérodrome :











RETROUVEZ-NOUS SUR...

 
LOGIN :

S'inscrire | Disclaimer

   EN    FR    IT 

 









Légende :    VFR   VFR Marginal   IFR   IFR Intensif   IFR Très Intensif
Visi : 
Plafond : 
>= 8 km
>= 3000ft
5 à 8 km
1000 à 3000 ft
1500m à 5 km
500 à 1000 ft
800 à 1500m
200 à 500 ft
< 800m
< 200 ft
Symboles :   Orages  Brouillard  Fortes neiges  Fortes précipitations  Vent > 20 kt






- Altitude de l'aérodrome : 13 ft
- Code IATA : SFO


KSFO - San Francisco International

DERNIER METAR :
  • 100656Z 00000KT 10SM BKN020 13/08 A3022 RMK AO2 SLP232 T01280078

METARs EXPIRÉS :
  • 100556Z 00000KT 9SM FEW016 BKN021 13/07 A3021 RMK AO2 SLP228 T01330072 10133 20117 50001
  • 100456Z 31005KT 9SM FEW013 BKN021 13/08 A3022 RMK AO2 SLP232 T01280078

TAF KSFO
Valide du 10 à 06h jusqu'au 11 à 12h UTC


100540Z 1006/1112 VRB03KT P6SM OVC015
TEMPO 1011/1015 2SM BR OVC003
FM102000 33005KT P6SM FEW005 BKN010
FM102200 30006KT P6SM SCT015
FM110200 16005KT 6SM -RA OVC030



MET'MAP, la Météo Aéronautique d'un coup d'oeil ! - Copyright ORBIFLY Décembre 2007 - Disclaimer

ORBIFLY MET'MAP TEAM :

Programmation & Développement : Alexandra Zaïnal
Sur une idée originale de : Baudouin d'Aumeries
Assistance à la programmation : Marc-Olivier Méhu
Soutien technique & logistique : Manuel Goepfert

Contact : metmap@orbifly.com




SOURCES & CREDITS :

   NOAA       Earth
Advisory